Redington Beach, Florida
Current Conditions -  °F | °C
As of 2:53 AM on Saturday 29 Nov 2014 (Local Time) from KPIE Reporting Station
Clear Clear  
Wind Chill: 50°   Ceiling: Unl
Heat Index: 50°   Visibility: 10mi
Dew Point: 44°   Wind: 10mph
Humidity: 80%   Direction: 60°ENE
Pressure: 30.27"   Gusts: NA
Location:  27.8164°N, 82.7802°W
Report Text: KPIE 290753Z AUTO 06009KT 10SM CLR 10/07 A3027 RMK AO2 SLP248 T01000067
Loading
Personal Weather Stations






























Interactive Weather Map New forecast layout! Learn more

10-Day Weather Forecast

Advertisements
Track Severe Weather on mobile